ENBO Airport Information

Runway Information
Runway 07 Length 11136 ft width 148 ft
Elevation 17 ft Threshold 1969 ft Heading 78
Runway 25 Length 11136 ft Width 148 ft
Elevation 39 ft Threshold ft Heading 258
Airport Frequencies
Type A/D Name APP/DEP Frequency 119.7 MHZ
Type ATIS Name ATIS Frequency 123.9 MHZ
Type TWR Name TWR Frequency 118.1 MHZ
Airport Navaids
Type VOR-DME Name Bodo Frequency 117200 KHZ
Type TACAN Name Bodo Frequency 110800 KHZ
Type NDB Name Fleinvaer Frequency 374 KHZ
Type NDB Name Fauske Frequency 326 KHZ
Type NDB Name Stott Frequency 317 KHZ
Airport Weather Information & NOTAM
ADDS - METARS form results

(1059 UTC 25 June 2022)
Data provider http://aviationweather.gov/metar/data/
 
METAR text: ENBO 251050Z 09014KT CAVOK 25/13 Q1010 NOSIG
Conditions at: ENBO (BODO VI (CIV/MIL, NO) observed 1050 UTC 25 June 2022
Temperature: 25.0°C (77°F)
Dewpoint: 13.0°C (55°F) [RH = 47%]
Pressure (altimeter): 29.82 inches Hg (1010.0 mb)
Winds: from the E (90 degrees) at 16 MPH (14 knots; 7.2 m/s)
Visibility: 6 or more miles (10+ km)
Ceiling: ceiling and visibility are OK
Clouds: unknown
Weather: no significant weather observed at this time

METAR text: ENBO 251020Z 08012KT CAVOK 24/12 Q1011 NOSIG
Conditions at: ENBO (BODO VI (CIV/MIL, NO) observed 1020 UTC 25 June 2022
Temperature: 24.0°C (75°F)
Dewpoint: 12.0°C (54°F) [RH = 47%]
Pressure (altimeter): 29.85 inches Hg (1011.0 mb)
Winds: from the E (80 degrees) at 14 MPH (12 knots; 6.2 m/s)
Visibility: 6 or more miles (10+ km)
Ceiling: ceiling and visibility are OK
Clouds: unknown
Weather: no significant weather observed at this time

Forecast for: AMD
Text: TAF AMD ENBO 2509/2606 02008KT CAVOK
Forecast period: 0900 UTC 25 June 2022 to 0600 UTC 26 June 2022
Forecast type: FROM: standard forecast or significant change
Winds: from the NNE (20 degrees) at 9 MPH (8 knots; 4.1 m/s)
Visibility: 6 or more miles (10+ km)
Ceiling: unknown
Clouds: missing
Weather: NSW  (no significant weather)
Text: TEMPO 2509/2606 09010KT
Forecast period: 0900 UTC 25 June 2022 to 0600 UTC 26 June 2022
Forecast type: TEMPORARY: The following changes expected for less than half the time period
Winds: from the E (90 degrees) at 12 MPH (10 knots; 5.1 m/s)
Visibility: missing
Ceiling: unknown
Clouds: missing
Weather: no significant weather forecast for this period